Time;durP1;ratioP1;P1;durP2;ratioP2;P2;SDS_P1;SDS_P2;PMS_P1;PMS_P2;Temp;Humidity;BMP_temperature;BMP_pressure;BME280_temperature;BME280_humidity;BME280_pressure;Samples;Min_cycle;Max_cycle;Signal;HPM_P1;HPM_P2
2023/12/05 06:14:56;;;;;;;0.00;0.00;;;;;;;;;;650717;23;20300;-94
2023/12/05 06:17:22;;;;;;;0.00;0.00;;;;;;;;;;4960613;28;20051;-93
2023/12/05 06:19:48;;;;;;;0.05;0.05;;;;;;;;;;4967189;28;20537;-94
2023/12/05 06:22:14;;;;;;;0.05;0.05;;;2.80;99.90;;;;;;4971923;28;20071;-94
2023/12/05 06:24:43;;;;;;;0.00;0.00;;;;;;;;;;4970615;28;20027;-94
2023/12/05 06:27:09;;;;;;;0.00;0.00;;;;;;;;;;4969025;28;20051;-94
2023/12/05 06:34:40;;;;;;;0.00;0.00;;;;;;;;;;4930693;29;20055;-94
2023/12/05 06:37:06;;;;;;;0.00;0.00;;;;;;;;;;4926108;28;20027;-94
2023/12/05 06:39:32;;;;;;;0.00;0.00;;;;;;;;;;4928105;29;20024;-93
2023/12/05 06:41:58;;;;;;;0.03;0.03;;;;;;;;;;4915956;29;20032;-93
2023/12/05 06:44:24;;;;;;;0.00;0.00;;;;;;;;;;4916124;29;20048;-93
2023/12/05 06:46:49;;;;;;;0.10;0.10;;;;;;;;;;4924611;29;20468;-93
2023/12/05 06:49:15;;;;;;;0.10;0.10;;;;;;;;;;4909601;29;20134;-93
2023/12/05 06:51:41;;;;;;;0.00;0.00;;;;;;;;;;4928808;29;20059;-93
2023/12/05 06:54:07;;;;;;;0.03;0.03;;;;;;;;;;4915007;29;20016;-93
2023/12/05 06:56:33;;;;;;;0.00;0.00;;;;;;;;;;4929964;29;20043;-94
2023/12/05 06:59:00;;;;;;;0.00;0.00;;;;;;;;;;4930237;29;20024;-93
2023/12/05 07:01:27;;;;;;;0.10;0.10;;;;;;;;;;4915523;29;20555;-93
2023/12/05 07:03:53;;;;;;;0.10;0.10;;;;;;;;;;4930942;29;20044;-94
2023/12/05 07:06:19;;;;;;;0.00;0.00;;;;;;;;;;4918151;29;20033;-93
2023/12/05 07:08:45;;;;;;;0.10;0.10;;;;;;;;;;4932688;29;20078;-94
2023/12/05 07:11:11;;;;;;;0.00;0.00;;;;;;;;;;4918080;29;20024;-94
2023/12/05 07:13:36;;;;;;;0.10;0.10;;;;;;;;;;4929712;29;20469;-92
2023/12/05 07:16:02;;;;;;;0.08;0.08;;;;;;;;;;4917711;29;20058;-93
2023/12/05 07:18:28;;;;;;;0.10;0.10;;;;;;;;;;4928947;29;20040;-92
2023/12/05 07:20:54;;;;;;;0.00;0.00;;;;;;;;;;4919511;29;20063;-93
2023/12/05 07:23:20;;;;;;;0.00;0.00;;;;;;;;;;4916098;29;20483;-92
2023/12/05 07:25:46;;;;;;;0.10;0.10;;;;;;;;;;4917323;29;20541;-93
2023/12/05 07:28:13;;;;;;;0.10;0.10;;;;;;;;;;4931181;29;20052;-92
2023/12/05 07:30:39;;;;;;;0.00;0.00;;;;;;;;;;4928628;29;20403;-93
2023/12/05 07:33:05;;;;;;;0.10;0.10;;;;;;;;;;4915375;29;20078;-92
2023/12/05 07:35:31;;;;;;;0.10;0.10;;;;;;;;;;4915277;29;20028;-93
2023/12/05 07:37:56;;;;;;;0.00;0.00;;;;;;;;;;4918305;29;20480;-93
2023/12/05 07:40:22;;;;;;;0.10;0.10;;;;;;;;;;4914448;29;20518;-93
2023/12/05 07:42:48;;;;;;;0.10;0.10;;;;;;;;;;4919003;29;20024;-94
2023/12/05 07:45:14;;;;;;;0.10;0.10;;;;;;;;;;4929327;29;20035;-94
2023/12/05 07:47:43;;;;;;;0.10;0.10;;;;;;;;;;4927881;29;20040;-93
2023/12/05 07:50:12;;;;;;;0.08;0.08;;;;;;;;;;4928732;29;20460;-92
2023/12/05 07:52:38;;;;;;;0.00;0.00;;;;;;;;;;4928987;29;20119;-94
2023/12/05 07:55:04;;;;;;;0.10;0.10;;;;;;;;;;4915934;29;20103;-92
2023/12/05 07:57:30;;;;;;;0.10;0.10;;;;;;;;;;4929238;29;20459;-93
2023/12/05 07:59:56;;;;;;;0.10;0.10;;;;;;;;;;4931244;29;20111;-93
2023/12/05 08:02:22;;;;;;;0.10;0.10;;;;;;;;;;4912253;29;20491;-93
2023/12/05 08:04:48;;;;;;;0.10;0.10;;;;;;;;;;4930992;29;20032;-93
2023/12/05 08:07:14;;;;;;;0.00;0.00;;;;;;;;;;4912081;29;20121;-93
2023/12/05 08:09:40;;;;;;;0.00;0.00;;;;;;;;;;4911442;29;20111;-93
2023/12/05 08:12:06;;;;;;;0.00;0.00;;;;;;;;;;4932615;29;20056;-93
2023/12/05 08:14:32;;;;;;;0.00;0.00;;;;;;;;;;4911428;29;20032;-93
2023/12/05 08:16:58;;;;;;;0.00;0.00;;;;;;;;;;4929524;29;20088;-93
2023/12/05 08:19:25;;;;;;;0.00;0.00;;;;;;;;;;4915227;29;20031;-94
2023/12/05 08:21:51;;;;;;;0.00;0.00;;;;;;;;;;4910951;29;20087;-92
2023/12/05 08:24:17;;;;;;;0.00;0.00;;;;;;;;;;4914626;29;20492;-92
2023/12/05 08:26:43;;;;;;;0.00;0.00;;;;;;;;;;4914938;29;20062;-93
2023/12/05 08:29:09;;;;;;;0.00;0.00;;;;;;;;;;4914620;29;20028;-93
2023/12/05 08:31:35;;;;;;;0.00;0.00;;;;;;;;;;4918971;29;20142;-93
2023/12/05 08:34:01;;;;;;;0.00;0.00;;;;;;;;;;4930151;29;20064;-92
2023/12/05 08:36:27;;;;;;;0.00;0.00;;;;;;;;;;4915545;29;20483;-93
2023/12/05 08:38:53;;;;;;;0.08;0.08;;;;;;;;;;4927083;29;20543;-93
2023/12/05 08:41:20;;;;;;;0.00;0.00;;;;;;;;;;4927094;29;20068;-92
2023/12/05 08:43:46;;;;;;;0.00;0.00;;;;;;;;;;4916046;29;20024;-92
2023/12/05 08:46:12;;;;;;;0.10;0.10;;;;;;;;;;4921354;29;20460;-94
2023/12/05 08:48:39;;;;;;;0.00;0.00;;;;;;;;;;4927145;29;20024;-92
2023/12/05 08:51:05;;;;;;;0.00;0.00;;;;;;;;;;4909174;29;20063;-94
2023/12/05 08:53:31;;;;;;;0.10;0.10;;;;;;;;;;4911872;29;20507;-93
2023/12/05 08:55:57;;;;;;;0.00;0.00;;;;;;;;;;4925254;29;20047;-92
2023/12/05 08:58:23;;;;;;;0.00;0.00;;;;;;;;;;4928879;29;20381;-92
2023/12/05 09:00:49;;;;;;;0.10;0.10;;;;;;;;;;4929384;29;20051;-93
2023/12/05 09:03:15;;;;;;;0.00;0.00;;;;;;;;;;4932087;29;20036;-93
2023/12/05 09:05:41;;;;;;;0.00;0.00;;;;;;;;;;4929204;29;20028;-92
2023/12/05 09:08:07;;;;;;;0.10;0.10;;;;;;;;;;4919301;29;20451;-92
2023/12/05 09:10:33;;;;;;;0.00;0.00;;;;;;;;;;4905981;29;20032;-92
2023/12/05 09:12:59;;;;;;;0.10;0.10;;;;;;;;;;4910859;29;20035;-93
2023/12/05 09:15:25;;;;;;;0.00;0.00;;;;;;;;;;4926468;29;20032;-93
2023/12/05 09:17:51;;;;;;;0.10;0.10;;;;;;;;;;4925512;29;20032;-93
2023/12/05 09:20:19;;;;;;;0.10;0.10;;;;;;;;;;4931957;29;20446;-93
2023/12/05 09:22:45;;;;;;;0.10;0.10;;;;;;;;;;4925555;29;20115;-94
2023/12/05 09:25:11;;;;;;;0.10;0.10;;;;;;;;;;4932148;29;20135;-93
2023/12/05 09:27:37;;;;;;;0.10;0.10;;;;;;;;;;4930721;29;20474;-93
2023/12/05 09:30:03;;;;;;;0.00;0.00;;;;;;;;;;4914741;29;20052;-94
2023/12/05 09:32:29;;;;;;;0.00;0.00;;;;;;;;;;4938181;29;20051;-93
2023/12/05 09:34:55;;;;;;;0.00;0.00;;;;;;;;;;4917644;29;20440;-94
2023/12/05 09:37:21;;;;;;;0.10;0.10;;;;;;;;;;4929702;29;20036;-92
2023/12/05 09:39:47;;;;;;;0.05;0.05;;;;;;;;;;4920097;29;20028;-93
2023/12/05 09:42:13;;;;;;;0.10;0.10;;;;;;;;;;4915570;29;20059;-93
2023/12/05 09:44:47;;;;;;;0.00;0.00;;;4.20;99.90;;;;;;4927806;29;20029;-93
2023/12/05 09:47:20;;;;;;;0.03;0.03;;;4.30;99.90;;;;;;4909249;29;20032;-93
2023/12/05 09:49:46;;;;;;;0.10;0.10;;;;;;;;;;4919027;29;20075;-93
2023/12/05 09:52:12;;;;;;;0.00;0.00;;;;;;;;;;4916677;29;20028;-94
2023/12/05 09:54:38;;;;;;;0.10;0.10;;;;;;;;;;4917454;29;20083;-94
2023/12/05 09:57:04;;;;;;;0.03;0.03;;;;;;;;;;4917578;29;20079;-93
2023/12/05 09:59:30;;;;;;;0.10;0.10;;;;;;;;;;4932385;29;20032;-93
2023/12/05 10:02:04;;;;;;;0.00;0.00;;;4.70;99.90;;;;;;4928499;29;20330;-93
2023/12/05 10:04:38;;;;;;;0.00;0.00;;;4.70;99.90;;;;;;4916250;29;20135;-93
2023/12/05 10:07:05;;;;;;;0.10;0.10;;;;;;;;;;4912553;29;20028;-92
2023/12/05 10:09:31;;;;;;;0.00;0.00;;;;;;;;;;4935127;29;20031;-94
2023/12/05 10:11:57;;;;;;;0.00;0.00;;;;;;;;;;4943982;29;20747;-89
2023/12/05 10:14:24;;;;;;;0.10;0.10;;;;;;;;;;4924394;29;20032;-91
2023/12/05 10:16:51;;;;;;;0.00;0.00;;;4.70;99.90;;;;;;4916819;29;20046;-91
2023/12/05 10:19:17;;;;;;;0.00;0.00;;;;;;;;;;4915244;29;20035;-94
2023/12/05 10:21:44;;;;;;;0.00;0.00;;;;;;;;;;4931617;29;20512;-93
2023/12/05 10:24:10;;;;;;;0.10;0.10;;;;;;;;;;4907170;29;20032;-92
2023/12/05 10:26:49;;;;;;;0.10;0.10;;;;;;;;;;4912018;29;20155;-93
2023/12/05 10:29:15;;;;;;;0.00;0.00;;;;;;;;;;4912871;29;20056;-92
2023/12/05 10:31:41;;;;;;;0.00;0.00;;;;;;;;;;4930330;29;20066;-92
2023/12/05 10:34:08;;;;;;;0.10;0.10;;;;;;;;;;4930839;29;20119;-91
2023/12/05 10:36:34;;;;;;;0.00;0.00;;;;;;;;;;4928408;29;20122;-92
2023/12/05 10:39:01;;;;;;;0.00;0.00;;;;;;;;;;4929818;29;20032;-91
2023/12/05 10:41:29;;;;;;;0.10;0.10;;;;;;;;;;4929515;29;20028;-92
2023/12/05 10:43:55;;;;;;;0.00;0.00;;;;;;;;;;4930143;29;20480;-92
2023/12/05 10:46:21;;;;;;;0.10;0.10;;;;;;;;;;4914867;29;20109;-92
2023/12/05 10:48:48;;;;;;;0.10;0.10;;;;;;;;;;4931211;29;20115;-92
2023/12/05 10:51:14;;;;;;;0.00;0.00;;;;;;;;;;4912747;29;20506;-93
2023/12/05 10:53:40;;;;;;;0.10;0.10;;;;;;;;;;4927930;29;20259;-91
2023/12/05 10:56:16;;;;;;;0.00;0.00;;;5.10;99.90;;;;;;4925890;29;20494;-91
2023/12/05 10:58:43;;;;;;;0.10;0.10;;;;;;;;;;4913390;29;20601;-92
2023/12/05 11:01:13;;;;;;;0.00;0.00;;;5.20;99.90;;;;;;4914389;29;20037;-92
2023/12/05 11:03:40;;;;;;;0.05;0.05;;;;;;;;;;4912140;29;20044;-92
2023/12/05 11:06:07;;;;;;;0.03;0.03;;;5.40;99.90;;;;;;4924444;29;20055;-93
2023/12/05 11:08:33;;;;;;;0.00;0.00;;;;;;;;;;4911281;29;20052;-90
2023/12/05 11:11:02;;;;;;;0.10;0.10;;;5.60;99.90;;;;;;4916234;29;20135;-92
2023/12/05 11:13:29;;;;;;;0.10;0.10;;;;;;;;;;4931963;28;20119;-92
2023/12/05 11:15:59;;;;;;;0.10;0.10;;;5.70;99.90;;;;;;4951724;28;20028;-95
2023/12/05 11:18:43;;;;;;;0.08;0.08;;;;;;;;;;4927446;29;20020;-92
2023/12/05 11:21:43;;;;;;;0.00;0.00;;;5.80;99.90;;;;;;4926665;29;20087;-94
2023/12/05 11:24:12;;;;;;;0.10;0.10;;;;;;;;;;4930996;29;20094;-94
2023/12/05 11:26:49;;;;;;;0.10;0.10;;;;;;;;;;4953140;29;20035;-94
2023/12/05 11:29:15;;;;;;;0.10;0.10;;;;;;;;;;4945136;29;20040;-94
2023/12/05 11:32:10;;;;;;;0.10;0.10;;;5.90;99.90;;;;;;4948260;29;20084;-94
2023/12/05 11:35:05;;;;;;;0.10;0.10;;;6.00;99.90;;;;;;4931815;29;20036;-94
2023/12/05 11:37:31;;;;;;;0.10;0.10;;;;;;;;;;4946893;29;20025;-94
2023/12/05 11:39:57;;;;;;;0.00;0.00;;;;;;;;;;4930902;29;20077;-94
2023/12/05 11:42:23;;;;;;;0.00;0.00;;;;;;;;;;4926338;29;20182;-94
2023/12/05 11:44:49;;;;;;;0.10;0.10;;;;;;;;;;4947418;29;20048;-94
2023/12/05 11:47:28;;;;;;;0.00;0.00;;;6.20;99.90;;;;;;4941740;29;20463;-94
2023/12/05 11:49:58;;;;;;;0.00;0.00;;;6.20;99.90;;;;;;4946763;29;20095;-96
2023/12/05 11:52:27;;;;;;;0.00;0.00;;;6.30;99.90;;;;;;4936776;29;20104;-94
2023/12/05 11:54:53;;;;;;;0.05;0.05;;;;;;;;;;4934373;29;20028;-94
2023/12/05 11:57:22;;;;;;;0.10;0.10;;;6.40;99.90;;;;;;4929225;29;20039;-93
2023/12/05 11:59:50;;;;;;;0.00;0.00;;;6.40;99.90;;;;;;4930419;29;20032;-94
2023/12/05 12:02:30;;;;;;;0.10;0.10;;;6.40;99.90;;;;;;4931320;29;20032;-94
2023/12/05 12:05:00;;;;;;;0.08;0.08;;;6.40;99.90;;;;;;4939121;29;20031;-93
2023/12/05 12:07:25;;;;;;;;;;;6.40;99.90;;;;;;4942559;29;20084;-93
2023/12/05 12:09:51;;;;;;;0.00;0.00;;;;;;;;;;4932128;29;20013;-93
2023/12/05 12:12:18;;;;;;;0.10;0.10;;;;;;;;;;4925526;29;20020;-94
2023/12/05 12:14:44;;;;;;;0.00;0.00;;;;;;;;;;4942171;29;20041;-94
2023/12/05 12:17:11;;;;;;;0.00;0.00;;;6.40;99.90;;;;;;4931094;29;20064;-94
2023/12/05 12:19:38;;;;;;;0.10;0.10;;;;;;;;;;4930302;29;20028;-93
2023/12/05 12:22:14;;;;;;;0.10;0.10;;;;;;;;;;4929861;29;20411;-94
2023/12/05 12:24:40;;;;;;;0.10;0.10;;;;;;;;;;4940062;29;20039;-93
2023/12/05 12:27:09;;;;;;;0.10;0.10;;;;;;;;;;4914269;29;20036;-92
2023/12/05 12:29:36;;;;;;;0.00;0.00;;;;;;;;;;4919103;29;20053;-94
2023/12/05 12:32:12;;;;;;;0.00;0.00;;;6.60;99.90;;;;;;4936274;29;20021;-94
2023/12/05 12:34:45;;;;;;;0.00;0.00;;;6.50;99.90;;;;;;4967340;23;20043;-88
2023/12/05 12:37:11;;;;;;;0.10;0.10;;;6.50;99.90;;;;;;4951143;28;20476;-87
2023/12/05 12:39:39;;;;;;;0.03;0.03;;;;;;;;;;4949759;28;20042;-86
2023/12/05 12:42:06;;;;;;;0.10;0.10;;;6.60;99.90;;;;;;4949018;29;20507;-85
2023/12/05 12:44:32;;;;;;;0.10;0.10;;;;;;;;;;4950313;28;20030;-87
2023/12/05 12:46:58;;;;;;;0.00;0.00;;;;;;;;;;4950562;28;20027;-86
2023/12/05 12:49:27;;;;;;;0.00;0.00;;;6.90;99.90;;;;;;4948362;28;20031;-85
2023/12/05 12:51:53;;;;;;;0.10;0.10;;;6.90;99.90;;;;;;4948028;28;20518;-86
2023/12/05 12:54:19;;;;;;;0.10;0.10;;;;;;;;;;4950123;28;20031;-87
2023/12/05 12:56:45;;;;;;;0.05;0.05;;;;;;;;;;4946069;28;20530;-86
2023/12/05 12:59:11;;;;;;;0.10;0.10;;;;;;;;;;4948881;28;20126;-88
2023/12/05 13:01:40;;;;;;;0.00;0.00;;;6.90;99.90;;;;;;4948920;28;20539;-86
2023/12/05 13:04:13;;;;;;;0.10;0.10;;;6.70;99.90;;;;;;4953339;28;20038;-87
2023/12/05 13:06:47;;;;;;;0.10;0.10;;;6.90;99.90;;;;;;4949176;28;20063;-86
2023/12/05 13:09:23;;;;;;;0.00;0.00;;;7.00;99.90;;;;;;4950275;28;20551;-86
2023/12/05 13:11:49;;;;;;;0.10;0.10;;;;;;;;;;4951107;28;20459;-85
2023/12/05 13:14:19;;;;;;;0.10;0.10;;;7.00;99.90;;;;;;4949151;28;20035;-87
2023/12/05 13:16:45;;;;;;;0.10;0.10;;;;;;;;;;4960812;28;20264;-87
2023/12/05 13:19:32;;;;;;;0.10;0.10;;;7.00;99.90;;;;;;4949922;28;20043;-87
2023/12/05 13:21:57;;;;;;;0.00;0.00;;;;;;;;;;4952277;28;20066;-88
2023/12/05 13:24:23;;;;;;;0.10;0.10;;;;;;;;;;4952922;28;20086;-87
2023/12/05 13:26:50;;;;;;;0.10;0.10;;;;;;;;;;4981131;28;20115;-85
2023/12/05 13:29:16;;;;;;;0.10;0.10;;;;;;;;;;4955281;28;20062;-87
2023/12/05 13:31:42;;;;;;;0.10;0.10;;;;;;;;;;4965135;28;20020;-86
2023/12/05 13:34:08;;;;;;;0.10;0.10;;;;;;;;;;4952075;28;20069;-88
2023/12/05 13:36:34;;;;;;;0.05;0.05;;;;;;;;;;4948703;29;20043;-87
2023/12/05 13:39:00;;;;;;;0.00;0.00;;;;;;;;;;4949691;28;20177;-88
2023/12/05 13:41:27;;;;;;;0.00;0.00;;;;;;;;;;4950778;28;20039;-87
2023/12/05 13:43:53;;;;;;;0.10;0.10;;;;;;;;;;4951820;28;20039;-88
2023/12/05 13:46:19;;;;;;;0.00;0.00;;;;;;;;;;4945980;28;20525;-89
2023/12/05 13:48:45;;;;;;;0.00;0.00;;;;;;;;;;4952381;28;20034;-89
2023/12/05 13:51:11;;;;;;;0.05;0.05;;;;;;;;;;4952185;28;20441;-88
2023/12/05 13:53:37;;;;;;;0.00;0.00;;;;;;;;;;4951818;28;20031;-89
2023/12/05 13:56:05;;;;;;;0.10;0.10;;;7.00;99.90;;;;;;4950015;28;20044;-84
2023/12/05 13:58:31;;;;;;;0.10;0.10;;;;;;;;;;4949361;28;20063;-85
2023/12/05 14:00:56;;;;;;;0.00;0.00;;;7.10;99.90;;;;;;4968645;28;20107;-89
2023/12/05 14:03:22;;;;;;;0.10;0.10;;;;;;;;;;4953018;28;20609;-87
2023/12/05 14:05:48;;;;;;;0.10;0.10;;;;;;;;;;4953733;28;20064;-86
2023/12/05 14:08:14;;;;;;;0.10;0.10;;;;;;;;;;4949632;28;20163;-87
2023/12/05 14:10:40;;;;;;;0.10;0.10;;;;;;;;;;4953249;29;20051;-87
2023/12/05 14:13:06;;;;;;;0.10;0.10;;;;;;;;;;4953932;28;20469;-89
2023/12/05 14:15:33;;;;;;;0.10;0.10;;;;;;;;;;4952041;28;20028;-87
2023/12/05 14:17:59;;;;;;;0.00;0.00;;;;;;;;;;4956454;28;20050;-89
2023/12/05 14:20:25;;;;;;;0.00;0.00;;;;;;;;;;4951178;28;20086;-87
2023/12/05 14:22:51;;;;;;;0.00;0.00;;;;;;;;;;4951508;28;20043;-87
2023/12/05 14:25:17;;;;;;;0.10;0.10;;;;;;;;;;4952855;28;20042;-87
2023/12/05 14:27:42;;;;;;;0.00;0.00;;;;;;;;;;4950561;28;20045;-87
2023/12/05 14:30:09;;;;;;;0.10;0.10;;;;;;;;;;4951135;28;20039;-85
2023/12/05 14:32:35;;;;;;;0.10;0.10;;;;;;;;;;4948789;28;20039;-85
2023/12/05 14:35:04;;;;;;;0.00;0.00;;;6.90;99.90;;;;;;4950749;28;20481;-86
2023/12/05 14:37:30;;;;;;;0.00;0.00;;;;;;;;;;4950197;28;20054;-83
2023/12/05 14:39:56;;;;;;;0.00;0.00;;;;;;;;;;4949622;28;20042;-89
2023/12/05 14:42:22;;;;;;;0.10;0.10;;;;;;;;;;4950917;28;20098;-87
2023/12/05 14:44:51;;;;;;;0.10;0.10;;;;;;;;;;4953822;28;20058;-88
2023/12/05 14:47:19;;;;;;;0.00;0.00;;;;;;;;;;4947402;28;20032;-87
2023/12/05 14:49:48;;;;;;;0.08;0.08;;;;;;;;;;4948720;28;20487;-88
2023/12/05 14:52:15;;;;;;;0.10;0.10;;;;;;;;;;4951831;28;20437;-86
2023/12/05 14:54:41;;;;;;;0.05;0.05;;;;;;;;;;4970470;28;20128;-88
2023/12/05 14:57:07;;;;;;;0.00;0.00;;;;;;;;;;4953125;28;20492;-88
2023/12/05 14:59:33;;;;;;;0.00;0.00;;;;;;;;;;4952715;28;20781;-88
2023/12/05 15:01:58;;;;;;;0.10;0.10;;;;;;;;;;4952979;28;20039;-88
2023/12/05 15:04:24;;;;;;;0.00;0.00;;;;;;;;;;4951844;28;20381;-86
2023/12/05 15:06:50;;;;;;;0.08;0.08;;;;;;;;;;4966028;28;20039;-83
2023/12/05 15:09:16;;;;;;;0.00;0.00;;;;;;;;;;4947810;28;20027;-88
2023/12/05 15:11:42;;;;;;;0.00;0.00;;;;;;;;;;4949123;28;20041;-84
2023/12/05 15:14:08;;;;;;;0.10;0.10;;;;;;;;;;4951009;28;20038;-86
2023/12/05 15:16:34;;;;;;;0.00;0.00;;;;;;;;;;4950423;28;20047;-86
2023/12/05 15:19:00;;;;;;;0.10;0.10;;;;;;;;;;4949388;28;20529;-85
2023/12/05 15:21:26;;;;;;;0.10;0.10;;;;;;;;;;4946334;28;20114;-86
2023/12/05 15:23:52;;;;;;;0.10;0.10;;;;;;;;;;4946424;28;20110;-82
2023/12/05 15:26:18;;;;;;;0.10;0.10;;;;;;;;;;4949128;28;20073;-88
2023/12/05 15:28:45;;;;;;;0.10;0.10;;;;;;;;;;4951654;28;20031;-87
2023/12/05 15:31:11;;;;;;;0.00;0.00;;;;;;;;;;4951107;28;20039;-89
2023/12/05 15:33:37;;;;;;;0.10;0.10;;;;;;;;;;4952433;28;20049;-88
2023/12/05 15:36:09;;;;;;;0.10;0.10;;;6.00;99.90;;;;;;4949186;28;20480;-89
2023/12/05 15:38:37;;;;;;;0.10;0.10;;;;;;;;;;4952451;28;20055;-86
2023/12/05 15:41:10;;;;;;;0.10;0.10;;;5.80;99.90;;;;;;4949607;28;20496;-85
2023/12/05 15:43:36;;;;;;;0.10;0.10;;;;;;;;;;4950935;28;20534;-88
2023/12/05 15:46:02;;;;;;;0.10;0.10;;;;;;;;;;4948743;28;20038;-87
2023/12/05 15:48:28;;;;;;;0.00;0.00;;;5.80;99.90;;;;;;4950602;28;20038;-87
2023/12/05 15:50:54;;;;;;;0.10;0.10;;;;;;;;;;4948373;28;20028;-89
2023/12/05 15:53:20;;;;;;;0.10;0.10;;;;;;;;;;4942064;28;20035;-87
2023/12/05 15:55:46;;;;;;;0.00;0.00;;;;;;;;;;4950770;28;20028;-86
2023/12/05 15:58:12;;;;;;;0.10;0.10;;;;;;;;;;4946856;28;20121;-89
2023/12/05 16:00:38;;;;;;;0.10;0.10;;;;;;;;;;4948035;28;20205;-87
2023/12/05 16:03:04;;;;;;;0.00;0.00;;;;;;;;;;4946057;28;20028;-88
2023/12/05 16:05:30;;;;;;;0.00;0.00;;;;;;;;;;4951848;28;20034;-87
2023/12/05 16:07:58;;;;;;;0.10;0.10;;;5.80;99.90;;;;;;4949076;28;20027;-85
2023/12/05 16:10:24;;;;;;;0.10;0.10;;;;;;;;;;4951317;28;20035;-88
2023/12/05 16:12:53;;;;;;;0.00;0.00;;;;;;;;;;4952285;28;20019;-87
2023/12/05 16:15:19;;;;;;;0.00;0.00;;;;;;;;;;4948354;28;20035;-87
2023/12/05 16:17:46;;;;;;;0.10;0.10;;;5.60;99.90;;;;;;4949643;28;20318;-85
2023/12/05 16:20:12;;;;;;;0.10;0.10;;;;;;;;;;4963074;28;20038;-87
2023/12/05 16:22:38;;;;;;;0.00;0.00;;;;;;;;;;4945184;28;20122;-85
2023/12/05 16:25:04;;;;;;;0.00;0.00;;;5.60;99.90;;;;;;4943398;28;20201;-84
2023/12/05 16:27:30;;;;;;;0.10;0.10;;;;;;;;;;4942147;28;20031;-87
2023/12/05 16:29:56;;;;;;;0.10;0.10;;;;;;;;;;4946004;28;20024;-84
2023/12/05 16:32:22;;;;;;;0.10;0.10;;;;;;;;;;4946372;28;20031;-88
2023/12/05 16:34:50;;;;;;;0.03;0.03;;;5.50;99.90;;;;;;4946732;28;20038;-86
2023/12/05 16:37:16;;;;;;;0.10;0.10;;;;;;;;;;4944494;28;20042;-85
2023/12/05 16:39:42;;;;;;;0.10;0.10;;;;;;;;;;4951887;28;20102;-87
2023/12/05 16:42:08;;;;;;;0.00;0.00;;;;;;;;;;4950592;28;20027;-86
2023/12/05 16:44:34;;;;;;;0.00;0.00;;;;;;;;;;4952922;28;20477;-87
2023/12/05 16:47:01;;;;;;;0.10;0.10;;;5.50;99.90;;;;;;4953065;28;20024;-89
2023/12/05 16:49:27;;;;;;;0.10;0.10;;;;;;;;;;4947859;28;20098;-90
2023/12/05 16:51:53;;;;;;;0.10;0.10;;;;;;;;;;4951087;28;20532;-88
2023/12/05 16:54:21;;;;;;;0.10;0.10;;;5.40;99.90;;;;;;4951073;28;20031;-85
2023/12/05 16:56:47;;;;;;;0.10;0.10;;;;;;;;;;4946687;28;20130;-86
2023/12/05 16:59:17;;;;;;;0.05;0.05;;;;;;;;;;4951320;28;20035;-86
2023/12/05 17:01:43;;;;;;;0.10;0.10;;;;;;;;;;4948128;28;20056;-87
2023/12/05 17:04:09;;;;;;;0.00;0.00;;;;;;;;;;4948643;28;20523;-86
2023/12/05 17:06:35;;;;;;;0.00;0.00;;;;;;;;;;4948948;28;20027;-84
2023/12/05 17:09:01;;;;;;;0.03;0.03;;;;;;;;;;4953678;28;20063;-85
2023/12/05 17:11:27;;;;;;;0.10;0.10;;;;;;;;;;4945397;28;20057;-84
2023/12/05 17:13:53;;;;;;;0.00;0.00;;;5.30;99.90;;;;;;4951557;28;20664;-85
2023/12/05 17:16:19;;;;;;;0.10;0.10;;;;;;;;;;4949851;28;20063;-86
2023/12/05 17:18:45;;;;;;;0.10;0.10;;;5.30;99.90;;;;;;4951356;28;20036;-87
2023/12/05 17:21:11;;;;;;;0.00;0.00;;;;;;;;;;4949857;28;20045;-84
2023/12/05 17:23:37;;;;;;;0.00;0.00;;;;;;;;;;4950189;28;20050;-85
2023/12/05 17:26:05;;;;;;;0.10;0.10;;;5.40;99.90;;;;;;4950795;28;20031;-85
2023/12/05 17:28:31;;;;;;;0.00;0.00;;;;;;;;;;4947034;28;20957;-85
2023/12/05 17:30:57;;;;;;;0.10;0.10;;;;;;;;;;4949036;28;20031;-83
2023/12/05 17:33:23;;;;;;;0.03;0.03;;;;;;;;;;4963828;28;20090;-85
2023/12/05 17:35:48;;;;;;;0.10;0.10;;;;;;;;;;4949352;28;20031;-85
2023/12/05 17:38:15;;;;;;;0.00;0.00;;;;;;;;;;4950921;28;20432;-86
2023/12/05 17:40:41;;;;;;;0.00;0.00;;;;;;;;;;4947742;28;20027;-83
2023/12/05 17:43:07;;;;;;;0.10;0.10;;;;;;;;;;4946564;28;20482;-85
2023/12/05 17:45:33;;;;;;;0.10;0.10;;;;;;;;;;4968701;28;20035;-87
2023/12/05 17:47:59;;;;;;;0.10;0.10;;;;;;;;;;4950646;28;20035;-84
2023/12/05 17:50:25;;;;;;;0.10;0.10;;;;;;;;;;4947473;28;20040;-84
2023/12/05 17:52:52;;;;;;;0.00;0.00;;;;;;;;;;4954240;28;20027;-85
2023/12/05 17:55:18;;;;;;;0.00;0.00;;;;;;;;;;4952958;28;20476;-86
2023/12/05 17:57:44;;;;;;;0.03;0.03;;;;;;;;;;4952816;28;20037;-85
2023/12/05 18:00:10;;;;;;;0.00;0.00;;;5.40;99.90;;;;;;4949162;28;20058;-87
2023/12/05 18:02:36;;;;;;;0.00;0.00;;;5.40;99.90;;;;;;4947612;28;20480;-86
2023/12/05 18:05:02;;;;;;;0.10;0.10;;;;;;;;;;4953259;28;20042;-85
2023/12/05 18:07:31;;;;;;;0.08;0.08;;;;;;;;;;4945609;28;20042;-85
2023/12/05 18:09:57;;;;;;;0.10;0.10;;;5.40;99.90;;;;;;4945421;28;20048;-86
2023/12/05 18:12:23;;;;;;;0.00;0.00;;;;;;;;;;4947683;28;21937;-84
2023/12/05 18:14:49;;;;;;;0.00;0.00;;;;;;;;;;4952898;28;20071;-87
2023/12/05 18:17:18;;;;;;;0.00;0.00;;;5.40;99.90;;;;;;4951137;28;20393;-84
2023/12/05 18:19:44;;;;;;;0.03;0.03;;;;;;;;;;4950091;28;20104;-85
2023/12/05 18:22:13;;;;;;;0.10;0.10;;;5.40;99.90;;;;;;4951210;28;20035;-84
2023/12/05 18:24:42;;;;;;;0.10;0.10;;;5.40;99.90;;;;;;4951681;28;20019;-84
2023/12/05 18:27:08;;;;;;;0.10;0.10;;;;;;;;;;4946178;28;20279;-86
2023/12/05 18:29:34;;;;;;;0.03;0.03;;;;;;;;;;4943676;28;20290;-84
2023/12/05 18:32:00;;;;;;;0.00;0.00;;;;;;;;;;4959870;28;20027;-85
2023/12/05 18:34:27;;;;;;;0.10;0.10;;;;;;;;;;4968304;28;20047;-86
2023/12/05 18:36:53;;;;;;;0.10;0.10;;;;;;;;;;4949756;28;20031;-84
2023/12/05 18:39:20;;;;;;;0.10;0.10;;;;;;;;;;4946688;28;20104;-84
2023/12/05 18:41:46;;;;;;;0.10;0.10;;;;;;;;;;4953787;28;20066;-88
2023/12/05 18:44:11;;;;;;;0.10;0.10;;;;;;;;;;4950487;28;20073;-85
2023/12/05 18:46:40;;;;;;;0.10;0.10;;;5.90;99.90;;;;;;4949072;28;20476;-83
2023/12/05 18:49:09;;;;;;;0.10;0.10;;;;;;;;;;4950348;28;20030;-88
2023/12/05 18:51:35;;;;;;;0.10;0.10;;;;;;;;;;4949984;28;20038;-88
2023/12/05 18:54:01;;;;;;;0.00;0.00;;;;;;;;;;4948368;28;20027;-85
2023/12/05 18:56:27;;;;;;;0.10;0.10;;;;;;;;;;4953278;28;20031;-86
2023/12/05 18:58:54;;;;;;;0.03;0.03;;;;;;;;;;4949603;28;20041;-85
2023/12/05 19:01:20;;;;;;;0.10;0.10;;;;;;;;;;4949185;28;20039;-86
2023/12/05 19:03:48;;;;;;;0.08;0.08;;;;;;;;;;4954550;28;20396;-86
2023/12/05 19:06:14;;;;;;;0.10;0.10;;;;;;;;;;4953034;28;20039;-84
2023/12/05 19:08:40;;;;;;;0.10;0.10;;;;;;;;;;4950611;28;20114;-84
2023/12/05 19:11:06;;;;;;;0.10;0.10;;;;;;;;;;4959024;28;20035;-85
2023/12/05 19:13:32;;;;;;;0.08;0.08;;;;;;;;;;4950596;28;20031;-85
2023/12/05 19:15:59;;;;;;;0.10;0.10;;;;;;;;;;4946710;28;20149;-86
2023/12/05 19:18:25;;;;;;;0.10;0.10;;;;;;;;;;4951706;28;20100;-86
2023/12/05 19:20:52;;;;;;;0.10;0.10;;;;;;;;;;4954854;28;20031;-85
2023/12/05 19:23:24;;;;;;;0.05;0.05;;;;;;;;;;4950787;28;20444;-85
2023/12/05 19:25:51;;;;;;;0.10;0.10;;;;;;;;;;4951766;28;20559;-86
2023/12/05 19:28:18;;;;;;;0.10;0.10;;;;;;;;;;4952118;28;20169;-87
2023/12/05 19:30:44;;;;;;;0.10;0.10;;;;;;;;;;4951069;28;20031;-85
2023/12/05 19:33:10;;;;;;;0.10;0.10;;;;;;;;;;4954313;28;20042;-83
2023/12/05 19:35:36;;;;;;;0.10;0.10;;;;;;;;;;4953070;28;20031;-83
2023/12/05 19:38:02;;;;;;;0.10;0.10;;;;;;;;;;4961951;28;20031;-85
2023/12/05 19:40:28;;;;;;;0.05;0.05;;;;;;;;;;4946858;28;20035;-87
2023/12/05 19:42:54;;;;;;;0.00;0.00;;;;;;;;;;4952512;28;20468;-85
2023/12/05 19:45:20;;;;;;;0.10;0.10;;;;;;;;;;4951863;28;20027;-81
2023/12/05 19:47:49;;;;;;;0.00;0.00;;;;;;;;;;4950235;28;20028;-85
2023/12/05 19:50:18;;;;;;;0.10;0.10;;;;;;;;;;4952921;28;20035;-86
2023/12/05 19:52:44;;;;;;;0.05;0.05;;;;;;;;;;4950441;28;20027;-85
2023/12/05 19:55:10;;;;;;;0.10;0.10;;;;;;;;;;4953047;28;20097;-85
2023/12/05 19:57:36;;;;;;;0.10;0.10;;;;;;;;;;4952827;28;20038;-86
2023/12/05 20:00:03;;;;;;;0.10;0.10;;;5.80;99.90;;;;;;4949954;28;20034;-86
2023/12/05 20:02:29;;;;;;;0.10;0.10;;;;;;;;;;4944198;28;20031;-85
2023/12/05 20:04:55;;;;;;;0.00;0.00;;;;;;;;;;4947791;28;20106;-85
2023/12/05 20:07:21;;;;;;;0.00;0.00;;;;;;;;;;4947895;28;20027;-85
2023/12/05 20:09:47;;;;;;;0.10;0.10;;;;;;;;;;4946329;28;20058;-84
2023/12/05 20:12:13;;;;;;;0.10;0.10;;;;;;;;;;4963872;28;20481;-84
2023/12/05 20:14:42;;;;;;;0.00;0.00;;;;;;;;;;4950667;28;20122;-86
2023/12/05 20:17:08;;;;;;;0.10;0.10;;;;;;;;;;4947750;29;20031;-86
2023/12/05 20:19:33;;;;;;;0.00;0.00;;;;;;;;;;4960946;28;20052;-83
2023/12/05 20:22:02;;;;;;;0.10;0.10;;;;;;;;;;4947026;28;20461;-84
2023/12/05 20:24:28;;;;;;;0.10;0.10;;;;;;;;;;4948417;28;20023;-83
2023/12/05 20:26:54;;;;;;;0.10;0.10;;;;;;;;;;4948599;28;20101;-84
2023/12/05 20:29:20;;;;;;;0.10;0.10;;;;;;;;;;4946822;28;20042;-87
2023/12/05 20:31:46;;;;;;;0.10;0.10;;;;;;;;;;4958576;28;20030;-86
2023/12/05 20:34:12;;;;;;;0.00;0.00;;;;;;;;;;4947686;28;20035;-85
2023/12/05 20:36:38;;;;;;;0.03;0.03;;;;;;;;;;4948983;28;20031;-85
2023/12/05 20:39:04;;;;;;;0.10;0.10;;;;;;;;;;4948094;28;20035;-86
2023/12/05 20:41:30;;;;;;;0.10;0.10;;;;;;;;;;4950851;28;20031;-85